Time;durP1;ratioP1;P1;durP2;ratioP2;P2;SDS_P1;SDS_P2;PMS_P1;PMS_P2;Temp;Humidity;BMP_temperature;BMP_pressure;BME280_temperature;BME280_humidity;BME280_pressure;Samples;Min_cycle;Max_cycle;Signal;HPM_P1;HPM_P2
2022/10/27 00:00:14;;;;;;;0.10;0.10;;;13.30;99.90;;;;;;4999497;28;20745;-82
2022/10/27 00:02:40;;;;;;;0.10;0.10;;;13.20;99.90;;;;;;5008278;28;20310;-82
2022/10/27 00:05:05;;;;;;;0.10;0.10;;;13.20;99.90;;;;;;4997981;28;20189;-82
2022/10/27 00:07:31;;;;;;;0.10;0.10;;;13.20;99.90;;;;;;4998940;28;20247;-82
2022/10/27 00:09:56;;;;;;;0.10;0.10;;;13.20;99.90;;;;;;5009985;28;20188;-82
2022/10/27 00:12:22;;;;;;;0.20;0.20;;;13.20;99.90;;;;;;5009620;28;20188;-82
2022/10/27 00:14:47;;;;;;;0.10;0.10;;;13.20;99.90;;;;;;5008646;28;20700;-82
2022/10/27 00:17:13;;;;;;;0.10;0.10;;;13.20;99.90;;;;;;4999601;28;20185;-81
2022/10/27 00:19:38;;;;;;;0.10;0.10;;;13.10;99.90;;;;;;5000525;28;20215;-81
2022/10/27 00:22:04;;;;;;;0.10;0.10;;;13.10;99.90;;;;;;5004243;28;20271;-82
2022/10/27 00:24:29;;;;;;;0.10;0.10;;;13.10;99.90;;;;;;4999404;28;20195;-80
2022/10/27 00:26:55;;;;;;;0.10;0.10;;;13.10;99.90;;;;;;5008698;28;20220;-82
2022/10/27 00:29:20;;;;;;;0.10;0.10;;;13.10;99.90;;;;;;5005960;28;20231;-82
2022/10/27 00:31:46;;;;;;;0.20;0.20;;;13.10;99.90;;;;;;5004030;28;20196;-81
2022/10/27 00:34:11;;;;;;;0.10;0.10;;;13.10;99.90;;;;;;5002664;28;20756;-82
2022/10/27 00:36:37;;;;;;;0.10;0.10;;;13.00;99.90;;;;;;5000491;28;20196;-81
2022/10/27 00:39:02;;;;;;;0.20;0.20;;;13.00;99.90;;;;;;5006072;28;20875;-81
2022/10/27 00:41:34;;;;;;;0.20;0.20;;;13.00;99.90;;;;;;5007451;28;20223;-81
2022/10/27 00:44:01;;;;;;;0.10;0.10;;;13.00;99.90;;;;;;5005316;28;20219;-81
2022/10/27 00:46:33;;;;;;;0.10;0.10;;;12.90;99.90;;;;;;4988069;28;20447;-82
2022/10/27 00:49:15;;;;;;;0.10;0.10;;;12.90;99.90;;;;;;4988976;28;20485;-82
2022/10/27 00:51:53;;;;;;;0.10;0.10;;;12.90;99.90;;;;;;5002149;28;20443;-81
2022/10/27 00:54:19;;;;;;;0.10;0.10;;;12.90;99.90;;;;;;5004831;28;20495;-81
2022/10/27 00:56:48;;;;;;;0.20;0.20;;;12.90;99.90;;;;;;5006562;28;20483;-81
2022/10/27 00:59:14;;;;;;;0.20;0.20;;;12.90;99.90;;;;;;5004974;28;20466;-82
2022/10/27 01:01:40;;;;;;;0.10;0.10;;;12.90;99.90;;;;;;5004884;28;20487;-81
2022/10/27 01:04:07;;;;;;;0.10;0.10;;;12.90;99.90;;;;;;4987468;28;20438;-82
2022/10/27 01:06:34;;;;;;;0.10;0.10;;;12.80;99.90;;;;;;5007487;28;20498;-82
2022/10/27 01:09:00;;;;;;;0.20;0.20;;;12.80;99.90;;;;;;4982656;28;20489;-80
2022/10/27 01:11:25;;;;;;;0.10;0.10;;;12.80;99.90;;;;;;5005453;28;20443;-82
2022/10/27 01:13:51;;;;;;;0.20;0.20;;;12.80;99.90;;;;;;5000701;28;20201;-82
2022/10/27 01:16:38;;;;;;;0.10;0.10;;;12.80;99.90;;;;;;5004189;28;20259;-82
2022/10/27 01:19:37;;;;;;;0.10;0.10;;;12.80;99.90;;;;;;4997737;28;20279;-82
2022/10/27 01:22:15;;;;;;;0.10;0.10;;;12.80;99.90;;;;;;4997520;28;20530;-82
2022/10/27 01:24:50;;;;;;;0.20;0.20;;;12.70;99.90;;;;;;5001368;28;20517;-82
2022/10/27 01:27:24;;;;;;;0.10;0.10;;;12.80;99.90;;;;;;5003808;28;20469;-82
2022/10/27 01:30:10;;;;;;;0.10;0.10;;;12.70;99.90;;;;;;5005774;28;20447;-81
2022/10/27 01:32:57;;;;;;;0.20;0.20;;;12.70;99.90;;;;;;5002745;28;20447;-82
2022/10/27 01:36:05;;;;;;;0.20;0.20;;;12.70;99.90;;;;;;5006162;28;20525;-82
2022/10/27 01:38:40;;;;;;;0.20;0.20;;;12.60;99.90;;;;;;4961177;28;20474;-81
2022/10/27 01:41:21;;;;;;;0.20;0.20;;;12.70;99.90;;;;;;5005144;28;20447;-81
2022/10/27 01:43:51;;;;;;;0.10;0.10;;;12.60;99.90;;;;;;4991291;28;20501;-82
2022/10/27 01:46:18;;;;;;;0.20;0.20;;;12.60;99.90;;;;;;4989878;28;20450;-81
2022/10/27 01:48:45;;;;;;;0.20;0.20;;;12.50;99.90;;;;;;4992561;28;20807;-82
2022/10/27 01:51:11;;;;;;;0.20;0.20;;;12.50;99.90;;;;;;4991838;28;20965;-82
2022/10/27 01:53:47;;;;;;;0.20;0.20;;;12.50;99.90;;;;;;5009030;28;20451;-82
2022/10/27 01:56:41;;;;;;;0.20;0.20;;;12.50;99.90;;;;;;5003780;28;20797;-81
2022/10/27 01:59:32;;;;;;;0.10;0.10;;;12.50;99.90;;;;;;5001967;28;20438;-81
2022/10/27 02:02:17;;;;;;;0.20;0.20;;;12.50;99.90;;;;;;5008220;28;20484;-81
2022/10/27 02:04:54;;;;;;;0.20;0.20;;;12.40;99.90;;;;;;5006741;28;20451;-82
2022/10/27 02:07:34;;;;;;;0.20;0.20;;;12.40;99.90;;;;;;5001751;28;20961;-81
2022/10/27 02:10:10;;;;;;;0.17;0.17;;;12.40;99.90;;;;;;5008725;28;20439;-82
2022/10/27 02:12:39;;;;;;;0.20;0.20;;;12.30;99.90;;;;;;4991769;28;20438;-81
2022/10/27 02:15:16;;;;;;;0.10;0.10;;;12.30;99.90;;;;;;5009924;28;20451;-82
2022/10/27 02:17:44;;;;;;;0.20;0.20;;;12.30;99.90;;;;;;4994983;28;20841;-81
2022/10/27 02:20:22;;;;;;;0.10;0.10;;;12.30;99.90;;;;;;5009413;28;20465;-82
2022/10/27 02:22:52;;;;;;;0.20;0.20;;;12.30;99.90;;;;;;5006896;28;20514;-82
2022/10/27 02:25:22;;;;;;;0.10;0.10;;;12.30;99.90;;;;;;5011353;28;20443;-82
2022/10/27 02:27:53;;;;;;;0.20;0.20;;;12.20;99.90;;;;;;5006646;28;20938;-82
2022/10/27 02:30:19;;;;;;;0.20;0.20;;;12.30;99.90;;;;;;4991495;28;20483;-81
2022/10/27 02:32:46;;;;;;;0.20;0.20;;;12.20;99.90;;;;;;4991815;28;20451;-82
2022/10/27 02:35:13;;;;;;;0.10;0.10;;;12.20;99.90;;;;;;5003733;28;20482;-82
2022/10/27 02:37:41;;;;;;;0.20;0.20;;;12.20;99.90;;;;;;5008725;28;20506;-82
2022/10/27 02:40:08;;;;;;;0.20;0.20;;;12.20;99.90;;;;;;5008901;28;20482;-81
2022/10/27 02:42:33;;;;;;;0.20;0.20;;;12.10;99.90;;;;;;4985300;28;20475;-82
2022/10/27 02:44:59;;;;;;;0.20;0.20;;;12.10;99.90;;;;;;5007097;28;20858;-82
2022/10/27 02:47:24;;;;;;;0.20;0.20;;;12.10;99.90;;;;;;5008481;28;20231;-82
2022/10/27 02:49:50;;;;;;;0.20;0.20;;;12.10;99.90;;;;;;4993463;28;20212;-81
2022/10/27 02:52:16;;;;;;;0.20;0.20;;;12.00;99.90;;;;;;5009968;28;20192;-81
2022/10/27 02:54:46;;;;;;;0.20;0.20;;;12.00;99.90;;;;;;5006225;28;20230;-81
2022/10/27 02:57:15;;;;;;;0.20;0.20;;;12.00;99.90;;;;;;5004889;28;20212;-81
2022/10/27 02:59:41;;;;;;;0.10;0.10;;;12.00;99.90;;;;;;4999645;28;20450;-81
2022/10/27 03:02:06;;;;;;;0.20;0.20;;;12.00;99.90;;;;;;5003507;28;21942;-80
2022/10/27 03:04:32;;;;;;;0.10;0.10;;;11.90;99.90;;;;;;4985887;28;20711;-83
2022/10/27 03:06:58;;;;;;;0.20;0.20;;;11.90;99.90;;;;;;4991249;28;20189;-83
2022/10/27 03:09:23;;;;;;;0.20;0.20;;;11.90;99.90;;;;;;5009749;28;20187;-83
2022/10/27 03:11:49;;;;;;;0.20;0.20;;;11.90;99.90;;;;;;4992251;28;20936;-83
2022/10/27 03:14:14;;;;;;;0.20;0.20;;;11.90;99.90;;;;;;4988933;28;20983;-83
2022/10/27 03:16:40;;;;;;;0.10;0.10;;;11.90;99.90;;;;;;4999584;28;20193;-80
2022/10/27 03:19:05;;;;;;;0.10;0.10;;;11.80;99.90;;;;;;5006088;28;20196;-82
2022/10/27 03:21:31;;;;;;;0.20;0.20;;;11.80;99.90;;;;;;4992884;28;20666;-83
2022/10/27 03:23:56;;;;;;;0.20;0.20;;;11.80;99.90;;;;;;5018653;28;20185;-81
2022/10/27 03:26:22;;;;;;;0.20;0.20;;;11.80;99.90;;;;;;5000549;28;20239;-83
2022/10/27 03:28:47;;;;;;;0.20;0.20;;;11.80;99.90;;;;;;5005042;28;20555;-82
2022/10/27 03:31:13;;;;;;;0.10;0.10;;;11.80;99.90;;;;;;5001437;28;20196;-83
2022/10/27 03:33:38;;;;;;;0.10;0.10;;;11.80;99.90;;;;;;5006247;28;20259;-83
2022/10/27 03:36:04;;;;;;;0.20;0.20;;;11.80;99.90;;;;;;4999346;28;20230;-83
2022/10/27 03:38:30;;;;;;;0.20;0.20;;;11.80;99.90;;;;;;5009378;28;20381;-81
2022/10/27 03:40:55;;;;;;;0.20;0.20;;;11.80;99.90;;;;;;5008072;28;20932;-82
2022/10/27 03:43:21;;;;;;;0.20;0.20;;;11.80;99.90;;;;;;4992557;28;20251;-82
2022/10/27 03:45:51;;;;;;;0.20;0.20;;;11.70;99.90;;;;;;4982458;28;20181;-83
2022/10/27 03:48:17;;;;;;;0.20;0.20;;;11.80;99.90;;;;;;5003979;28;20177;-83
2022/10/27 03:50:47;;;;;;;0.20;0.20;;;11.80;99.90;;;;;;4989348;28;20435;-82
2022/10/27 03:53:13;;;;;;;0.20;0.20;;;11.80;99.90;;;;;;5004523;28;20196;-80
2022/10/27 03:55:40;;;;;;;0.17;0.17;;;11.70;99.90;;;;;;4992547;28;20440;-83
2022/10/27 03:58:05;;;;;;;0.20;0.20;;;11.80;99.90;;;;;;5003152;28;20443;-81
2022/10/27 04:00:32;;;;;;;0.20;0.20;;;11.70;99.90;;;;;;4986622;28;20505;-80
2022/10/27 04:02:58;;;;;;;0.20;0.20;;;11.70;99.90;;;;;;5005759;28;20301;-81
2022/10/27 04:05:24;;;;;;;0.20;0.20;;;11.70;99.90;;;;;;4982778;28;20502;-81
2022/10/27 04:07:50;;;;;;;0.20;0.20;;;11.70;99.90;;;;;;4999693;28;20450;-81
2022/10/27 04:10:15;;;;;;;0.20;0.20;;;11.70;99.90;;;;;;5009011;28;20485;-81
2022/10/27 04:12:52;;;;;;;0.10;0.10;;;11.70;99.90;;;;;;5010872;28;20665;-81
2022/10/27 04:15:19;;;;;;;0.20;0.20;;;11.70;99.90;;;;;;4996738;28;20208;-81
2022/10/27 04:17:44;;;;;;;0.20;0.20;;;11.70;99.90;;;;;;5003645;28;20486;-80
2022/10/27 04:20:11;;;;;;;0.20;0.20;;;11.70;99.90;;;;;;5004595;28;20509;-80
2022/10/27 04:22:37;;;;;;;0.20;0.20;;;11.70;99.90;;;;;;5004659;28;20221;-80
2022/10/27 04:25:02;;;;;;;0.20;0.20;;;11.70;99.90;;;;;;5001057;28;20455;-80
2022/10/27 04:27:28;;;;;;;0.20;0.20;;;11.60;99.90;;;;;;5007064;28;20664;-80
2022/10/27 04:29:53;;;;;;;0.10;0.10;;;11.60;99.90;;;;;;5008728;28;20671;-80
2022/10/27 04:32:19;;;;;;;0.20;0.20;;;11.60;99.90;;;;;;5004165;28;20242;-80
2022/10/27 04:34:44;;;;;;;0.20;0.20;;;11.70;99.90;;;;;;4987812;28;20682;-81
2022/10/27 04:37:10;;;;;;;0.10;0.10;;;11.60;99.90;;;;;;5004677;28;20193;-81
2022/10/27 04:39:35;;;;;;;0.20;0.20;;;11.60;99.90;;;;;;4991254;28;20232;-81
2022/10/27 04:42:01;;;;;;;0.10;0.10;;;11.60;99.90;;;;;;5004782;28;20223;-80
2022/10/27 04:44:26;;;;;;;0.20;0.20;;;11.60;99.90;;;;;;4992742;28;20197;-81
2022/10/27 04:46:52;;;;;;;0.20;0.20;;;11.60;99.90;;;;;;4993620;28;20271;-81
2022/10/27 04:49:17;;;;;;;0.20;0.20;;;11.70;99.90;;;;;;5000948;28;20315;-81
2022/10/27 04:51:43;;;;;;;0.20;0.20;;;11.70;99.90;;;;;;5008944;28;20210;-80
2022/10/27 04:54:08;;;;;;;0.10;0.10;;;11.70;99.90;;;;;;4991862;28;20734;-81
2022/10/27 04:56:34;;;;;;;0.20;0.20;;;11.70;99.90;;;;;;4987868;28;20211;-81
2022/10/27 04:58:59;;;;;;;0.10;0.10;;;11.70;99.90;;;;;;5007572;28;20188;-81
2022/10/27 05:01:25;;;;;;;0.10;0.10;;;11.70;99.90;;;;;;4990661;28;20193;-81
2022/10/27 05:03:50;;;;;;;0.20;0.20;;;11.60;99.90;;;;;;5006618;28;20444;-80
2022/10/27 05:06:16;;;;;;;0.10;0.10;;;11.70;99.90;;;;;;5005983;28;20184;-81
2022/10/27 05:08:42;;;;;;;0.20;0.20;;;11.60;99.90;;;;;;4992731;28;20279;-81
2022/10/27 05:11:07;;;;;;;0.10;0.10;;;11.60;99.90;;;;;;5012655;28;20191;-80
2022/10/27 05:13:33;;;;;;;0.10;0.10;;;11.60;99.90;;;;;;5004358;28;20254;-81
2022/10/27 05:16:00;;;;;;;0.20;0.20;;;11.70;99.90;;;;;;4995116;28;20199;-81
2022/10/27 05:18:25;;;;;;;0.20;0.20;;;11.70;99.90;;;;;;5012469;28;20246;-81
2022/10/27 05:20:51;;;;;;;0.10;0.10;;;11.60;99.90;;;;;;4987255;28;20459;-80
2022/10/27 05:23:16;;;;;;;0.20;0.20;;;11.60;99.90;;;;;;5007150;28;20216;-81
2022/10/27 05:25:42;;;;;;;0.20;0.20;;;11.60;99.90;;;;;;5004134;28;20192;-80
2022/10/27 05:28:08;;;;;;;0.20;0.20;;;11.60;99.90;;;;;;5009797;28;20214;-80
2022/10/27 05:30:34;;;;;;;0.20;0.20;;;11.60;99.90;;;;;;4991563;28;20179;-81
2022/10/27 05:33:00;;;;;;;0.20;0.20;;;11.60;99.90;;;;;;4992606;28;20446;-82
2022/10/27 05:35:26;;;;;;;0.20;0.20;;;11.50;99.90;;;;;;5013658;28;20442;-81
2022/10/27 05:37:52;;;;;;;0.20;0.20;;;11.50;99.90;;;;;;5014799;28;20489;-81
2022/10/27 05:40:17;;;;;;;0.20;0.20;;;11.50;99.90;;;;;;4994045;28;20335;-82
2022/10/27 05:42:51;;;;;;;0.20;0.20;;;11.50;99.90;;;;;;4995355;28;20810;-81
2022/10/27 05:45:16;;;;;;;0.20;0.20;;;11.50;99.90;;;;;;4992556;28;20181;-80
2022/10/27 05:47:42;;;;;;;0.20;0.20;;;11.40;99.90;;;;;;5011225;28;20493;-82
2022/10/27 05:50:08;;;;;;;0.20;0.20;;;11.40;99.90;;;;;;5012273;28;20234;-81
2022/10/27 05:52:33;;;;;;;0.20;0.20;;;11.40;99.90;;;;;;5008668;28;20270;-80
2022/10/27 05:54:59;;;;;;;0.20;0.20;;;11.40;99.90;;;;;;5011834;28;20213;-81
2022/10/27 05:57:24;;;;;;;0.20;0.20;;;11.40;99.90;;;;;;4992023;28;20294;-81
2022/10/27 05:59:50;;;;;;;0.20;0.20;;;11.40;99.90;;;;;;5007351;28;20263;-81
2022/10/27 06:02:15;;;;;;;0.20;0.20;;;11.40;99.90;;;;;;4995761;28;20226;-81
2022/10/27 06:04:41;;;;;;;0.20;0.20;;;11.30;99.90;;;;;;5012228;28;20193;-79
2022/10/27 06:07:06;;;;;;;0.20;0.20;;;11.30;99.90;;;;;;5011058;28;20291;-80
2022/10/27 06:09:32;;;;;;;0.20;0.20;;;11.30;99.90;;;;;;5012542;28;20211;-80
2022/10/27 06:11:57;;;;;;;0.20;0.20;;;11.30;99.90;;;;;;5011052;28;20191;-81
2022/10/27 06:14:23;;;;;;;0.20;0.20;;;11.20;99.90;;;;;;5008960;28;20271;-81
2022/10/27 06:16:48;;;;;;;0.20;0.20;;;11.20;99.90;;;;;;5006918;28;20192;-81
2022/10/27 06:19:14;;;;;;;0.20;0.20;;;11.20;99.90;;;;;;5007034;28;20731;-80
2022/10/27 06:21:39;;;;;;;0.20;0.20;;;11.20;99.90;;;;;;5007815;28;20694;-81
2022/10/27 06:24:05;;;;;;;0.17;0.17;;;11.30;99.90;;;;;;4990147;28;20184;-79
2022/10/27 06:26:31;;;;;;;0.20;0.20;;;11.30;99.90;;;;;;5004139;28;20192;-81
2022/10/27 06:28:56;;;;;;;0.20;0.20;;;11.30;99.90;;;;;;4988982;28;20733;-80
2022/10/27 06:31:22;;;;;;;0.20;0.20;;;11.30;99.90;;;;;;5006171;28;20195;-79
2022/10/27 06:33:47;;;;;;;0.20;0.20;;;11.20;99.90;;;;;;5001364;28;20196;-79
2022/10/27 06:36:13;;;;;;;0.20;0.20;;;11.30;99.90;;;;;;5005814;28;20188;-80
2022/10/27 06:38:40;;;;;;;0.20;0.20;;;11.20;99.90;;;;;;4989864;28;20241;-80
2022/10/27 06:41:06;;;;;;;0.20;0.20;;;11.30;99.90;;;;;;5007603;28;20200;-81
2022/10/27 06:43:31;;;;;;;0.20;0.20;;;11.30;99.90;;;;;;5003344;28;20497;-81
2022/10/27 06:45:57;;;;;;;0.20;0.20;;;11.30;99.90;;;;;;4985418;28;20748;-81
2022/10/27 06:48:22;;;;;;;0.20;0.20;;;11.30;99.90;;;;;;5008530;28;20238;-80
2022/10/27 06:50:48;;;;;;;0.20;0.20;;;11.30;99.90;;;;;;5009072;28;20316;-80
2022/10/27 06:53:14;;;;;;;0.20;0.20;;;11.30;99.90;;;;;;5011767;28;20185;-80
2022/10/27 06:55:40;;;;;;;0.20;0.20;;;11.30;99.90;;;;;;4992747;28;20187;-80
2022/10/27 06:58:06;;;;;;;0.20;0.20;;;11.30;99.90;;;;;;4993755;28;20455;-80
2022/10/27 07:00:31;;;;;;;0.20;0.20;;;11.30;99.90;;;;;;5006679;28;20451;-80
2022/10/27 07:02:57;;;;;;;0.20;0.20;;;11.40;99.90;;;;;;5009254;28;20236;-80
2022/10/27 07:05:22;;;;;;;0.20;0.20;;;11.40;99.90;;;;;;5008684;28;20619;-81
2022/10/27 07:07:52;;;;;;;0.20;0.20;;;11.40;99.90;;;;;;5011453;28;20193;-80
2022/10/27 07:10:19;;;;;;;0.20;0.20;;;11.40;99.90;;;;;;4999362;28;20357;-80
2022/10/27 07:12:59;;;;;;;0.20;0.20;;;11.50;99.90;;;;;;4991820;28;20431;-80
2022/10/27 07:15:26;;;;;;;0.20;0.20;;;11.50;99.90;;;;;;4988019;28;20462;-80
2022/10/27 07:17:57;;;;;;;0.20;0.20;;;11.60;99.90;;;;;;5012795;28;20501;-80
2022/10/27 07:20:23;;;;;;;0.20;0.20;;;11.60;99.90;;;;;;4991361;28;20975;-81
2022/10/27 07:22:48;;;;;;;0.20;0.20;;;11.70;99.90;;;;;;4998670;28;20484;-81
2022/10/27 07:25:14;;;;;;;0.13;0.13;;;11.70;99.90;;;;;;5004241;28;20270;-80
2022/10/27 07:27:39;;;;;;;0.13;0.13;;;11.70;99.90;;;;;;5005217;28;20738;-80
2022/10/27 07:30:05;;;;;;;0.10;0.10;;;11.80;99.90;;;;;;5003201;28;20238;-80
2022/10/27 07:32:31;;;;;;;0.20;0.20;;;11.80;99.90;;;;;;5005372;28;20191;-79
2022/10/27 07:34:56;;;;;;;0.10;0.10;;;11.80;99.90;;;;;;4985543;28;20435;-79
2022/10/27 07:37:22;;;;;;;0.20;0.20;;;11.90;99.90;;;;;;5003691;28;20188;-81
2022/10/27 07:39:48;;;;;;;0.20;0.20;;;11.90;99.90;;;;;;4988280;28;20572;-81
2022/10/27 07:42:14;;;;;;;0.10;0.10;;;12.00;99.90;;;;;;5005797;28;20298;-82
2022/10/27 07:44:40;;;;;;;0.20;0.20;;;12.10;99.90;;;;;;5004749;28;20443;-80
2022/10/27 07:47:05;;;;;;;0.20;0.20;;;12.10;99.90;;;;;;5004549;28;20441;-81
2022/10/27 07:49:31;;;;;;;0.20;0.20;;;12.20;99.90;;;;;;5006014;28;20200;-81
2022/10/27 07:51:56;;;;;;;0.20;0.20;;;12.30;99.90;;;;;;5000212;28;20253;-79
2022/10/27 07:54:22;;;;;;;0.10;0.10;;;12.30;99.90;;;;;;5000125;28;20275;-80
2022/10/27 07:56:48;;;;;;;0.20;0.20;;;12.40;99.90;;;;;;5007294;28;20195;-80
2022/10/27 07:59:13;;;;;;;0.20;0.20;;;12.40;99.90;;;;;;5004381;28;20188;-80
2022/10/27 08:01:39;;;;;;;0.20;0.20;;;12.40;99.90;;;;;;5001005;28;20351;-81
2022/10/27 08:04:04;;;;;;;0.20;0.20;;;12.40;99.90;;;;;;5006546;28;20211;-81
2022/10/27 08:06:30;;;;;;;0.20;0.20;;;12.50;99.90;;;;;;4985822;28;20187;-80
2022/10/27 08:08:55;;;;;;;0.10;0.10;;;12.60;99.90;;;;;;5010001;28;20188;-80
2022/10/27 08:11:22;;;;;;;0.10;0.10;;;12.60;99.90;;;;;;5005991;28;20184;-82
2022/10/27 08:13:48;;;;;;;0.20;0.20;;;12.70;99.90;;;;;;5007799;28;20192;-81
2022/10/27 08:16:13;;;;;;;0.20;0.20;;;12.70;99.90;;;;;;5005423;28;20439;-79
2022/10/27 08:18:39;;;;;;;0.10;0.10;;;12.70;99.90;;;;;;5001290;28;20195;-80
2022/10/27 08:21:04;;;;;;;0.10;0.10;;;12.70;99.90;;;;;;5001833;28;20185;-80
2022/10/27 08:23:30;;;;;;;0.10;0.10;;;12.70;99.90;;;;;;4989333;28;20223;-79
2022/10/27 08:25:56;;;;;;;0.10;0.10;;;12.80;99.90;;;;;;4990205;28;20278;-80
2022/10/27 08:28:23;;;;;;;0.20;0.20;;;12.90;99.90;;;;;;4989699;28;20458;-79
2022/10/27 08:30:50;;;;;;;0.10;0.10;;;13.00;99.90;;;;;;4990153;28;20260;-80
2022/10/27 08:33:16;;;;;;;0.10;0.10;;;13.20;99.90;;;;;;5008170;28;20446;-80
2022/10/27 08:35:41;;;;;;;0.10;0.10;;;13.30;99.90;;;;;;4984694;28;20451;-81
2022/10/27 08:38:12;;;;;;;0.10;0.10;;;13.40;99.90;;;;;;5003722;28;20188;-80
2022/10/27 08:41:06;;;;;;;0.10;0.10;;;13.40;99.90;;;;;;4982211;28;20246;-81
2022/10/27 08:43:44;;;;;;;0.10;0.10;;;13.40;99.90;;;;;;4998817;28;20497;-81
2022/10/27 08:46:27;;;;;;;0.10;0.10;;;13.50;99.90;;;;;;4988548;28;20439;-80
2022/10/27 08:48:57;;;;;;;0.10;0.10;;;13.60;99.90;;;;;;5011720;28;20525;-81
2022/10/27 08:51:24;;;;;;;0.10;0.10;;;13.60;99.90;;;;;;5003284;28;20470;-84
2022/10/27 08:53:53;;;;;;;0.10;0.10;;;13.80;99.90;;;;;;4998943;28;20946;-80
2022/10/27 08:56:21;;;;;;;0.10;0.10;;;13.80;99.90;;;;;;5001571;28;20793;-81
2022/10/27 08:58:47;;;;;;;0.10;0.10;;;14.10;99.90;;;;;;5006866;28;20537;-81
2022/10/27 09:01:22;;;;;;;0.10;0.10;;;14.10;99.90;;;;;;5002373;28;20447;-83
2022/10/27 09:04:02;;;;;;;0.10;0.10;;;14.00;99.90;;;;;;4989713;28;20846;-82
2022/10/27 09:06:31;;;;;;;0.10;0.10;;;14.00;99.90;;;;;;5005950;28;20480;-85
2022/10/27 09:09:23;;;;;;;0.10;0.10;;;14.00;99.90;;;;;;5003171;28;20538;-83
2022/10/27 09:12:22;;;;;;;0.10;0.10;;;14.20;99.90;;;;;;4999884;28;20440;-85
2022/10/27 09:15:19;;;;;;;0.10;0.10;;;14.50;99.90;;;;;;5007189;28;20474;-83
2022/10/27 09:17:51;;;;;;;0.10;0.10;;;14.70;99.90;;;;;;5003088;28;20447;-85
2022/10/27 09:20:26;;;;;;;0.10;0.10;;;14.80;99.90;;;;;;5004347;28;20938;-82
2022/10/27 09:22:54;;;;;;;0.10;0.10;;;14.80;99.90;;;;;;5006921;28;20577;-83
2022/10/27 09:25:22;;;;;;;0.10;0.10;;;15.00;99.90;;;;;;4986276;28;20439;-84
2022/10/27 09:27:53;;;;;;;0.10;0.10;;;15.30;99.90;;;;;;5008300;28;20443;-83
2022/10/27 09:30:18;;;;;;;0.10;0.10;;;15.40;99.90;;;;;;5001588;28;20950;-83
2022/10/27 09:32:55;;;;;;;0.10;0.10;;;15.70;99.90;;;;;;5004859;28;20500;-84
2022/10/27 09:35:27;;;;;;;0.10;0.10;;;15.70;99.90;;;;;;5000012;28;20668;-83
2022/10/27 09:37:55;;;;;;;0.10;0.10;;;15.40;99.90;;;;;;5005892;28;20455;-84
2022/10/27 09:40:22;;;;;;;0.10;0.10;;;15.20;99.90;;;;;;4998548;28;20518;-83
2022/10/27 09:42:54;;;;;;;0.10;0.10;;;14.90;99.90;;;;;;4999062;28;20551;-84
2022/10/27 09:45:21;;;;;;;0.10;0.10;;;14.80;99.90;;;;;;5008343;28;20447;-85
2022/10/27 09:47:54;;;;;;;0.10;0.10;;;14.70;99.90;;;;;;5004365;28;20435;-82
2022/10/27 09:50:23;;;;;;;0.10;0.10;;;15.00;99.90;;;;;;4990598;28;20905;-84
2022/10/27 09:52:49;;;;;;;0.10;0.10;;;15.60;99.90;;;;;;5004106;28;20652;-84
2022/10/27 09:55:16;;;;;;;0.10;0.10;;;15.80;99.90;;;;;;5004351;28;20477;-84
2022/10/27 09:57:45;;;;;;;0.10;0.10;;;16.10;99.90;;;;;;5010499;28;20947;-84
2022/10/27 10:00:14;;;;;;;0.10;0.10;;;16.60;99.90;;;;;;4989552;28;20443;-85
2022/10/27 10:02:53;;;;;;;0.10;0.10;;;16.80;99.90;;;;;;5007559;28;21062;-85
2022/10/27 10:05:23;;;;;;;0.10;0.10;;;16.90;99.90;;;;;;4989024;28;20511;-86
2022/10/27 10:07:49;;;;;;;0.10;0.10;;;17.30;99.90;;;;;;5008230;28;20450;-86
2022/10/27 10:10:30;;;;;;;0.10;0.10;;;17.70;99.90;;;;;;4985469;28;20447;-85
2022/10/27 10:13:11;;;;;;;0.10;0.10;;;18.20;99.90;;;;;;5002763;28;20459;-80
2022/10/27 10:15:42;;;;;;;0.10;0.10;;;17.90;99.90;;;;;;4996071;28;20438;-79
2022/10/27 10:18:27;;;;;;;0.10;0.10;;;17.40;99.90;;;;;;5009699;28;20455;-79
2022/10/27 10:20:59;;;;;;;0.10;0.10;;;17.70;99.90;;;;;;5003662;28;20534;-79
2022/10/27 10:23:30;;;;;;;0.10;0.10;;;18.30;99.90;;;;;;5012733;28;20491;-79
2022/10/27 10:25:58;;;;;;;0.10;0.10;;;18.30;99.90;;;;;;5003528;28;20446;-79
2022/10/27 10:28:39;;;;;;;0.10;0.10;;;18.00;99.90;;;;;;4982432;28;20445;-79
2022/10/27 10:31:08;;;;;;;0.10;0.10;;;17.60;99.90;;;;;;5008094;28;20451;-78
2022/10/27 10:33:45;;;;;;;0.10;0.10;;;17.70;99.90;;;;;;5008446;28;20498;-80
2022/10/27 10:36:19;;;;;;;0.10;0.10;;;17.70;99.90;;;;;;5006652;28;20451;-80
2022/10/27 10:38:54;;;;;;;0.10;0.10;;;17.80;99.90;;;;;;4981703;28;21261;-80
2022/10/27 10:41:20;;;;;;;0.10;0.10;;;17.60;99.90;;;;;;5001778;28;20448;-80
2022/10/27 10:43:46;;;;;;;0.10;0.10;;;17.50;99.90;;;;;;4980923;28;20479;-80
2022/10/27 10:46:22;;;;;;;0.10;0.10;;;17.60;99.90;;;;;;4998092;28;20842;-80
2022/10/27 10:48:55;;;;;;;0.10;0.10;;;17.50;99.90;;;;;;4988481;28;20451;-79
2022/10/27 10:51:34;;;;;;;0.10;0.10;;;17.50;99.90;;;;;;4999007;28;20872;-80
2022/10/27 10:54:12;;;;;;;0.10;0.10;;;17.40;99.90;;;;;;4984027;28;20538;-81
2022/10/27 10:56:38;;;;;;;0.10;0.10;;;17.50;99.90;;;;;;4981714;28;20455;-80
2022/10/27 10:59:16;;;;;;;0.10;0.10;;;17.50;99.90;;;;;;4982775;28;20966;-78
2022/10/27 11:01:46;;;;;;;0.10;0.10;;;17.50;99.90;;;;;;4994647;28;20486;-79
2022/10/27 11:04:16;;;;;;;0.10;0.10;;;17.60;99.90;;;;;;4999601;28;20497;-80
2022/10/27 11:07:04;;;;;;;0.10;0.10;;;17.80;99.90;;;;;;4987026;28;20537;-80
2022/10/27 11:09:49;;;;;;;0.10;0.10;;;18.60;99.90;;;;;;5007600;28;20518;-79
2022/10/27 11:12:35;;;;;;;0.10;0.10;;;18.90;99.90;;;;;;5009434;28;20458;-79
2022/10/27 11:15:27;;;;;;;0.10;0.00;;;19.30;99.90;;;;;;4993522;28;20542;-79
2022/10/27 11:18:03;;;;;;;0.10;0.00;;;19.60;99.90;;;;;;4983680;28;20476;-79
2022/10/27 11:20:32;;;;;;;0.10;0.00;;;19.10;99.90;;;;;;5009740;28;20443;-79
2022/10/27 11:22:59;;;;;;;0.10;0.07;;;18.70;99.90;;;;;;5008142;28;20482;-79
2022/10/27 11:25:33;;;;;;;0.10;0.10;;;18.40;99.90;;;;;;5013898;28;20468;-79
2022/10/27 11:28:33;;;;;;;0.10;0.10;;;18.10;99.90;;;;;;4989055;28;20448;-79
2022/10/27 11:31:09;;;;;;;0.10;0.10;;;18.00;99.90;;;;;;5009009;28;20439;-79
2022/10/27 11:33:46;;;;;;;0.10;0.10;;;17.90;99.90;;;;;;4993468;28;20450;-79
2022/10/27 11:36:19;;;;;;;0.10;0.10;;;17.90;99.90;;;;;;5012433;28;20497;-79
2022/10/27 11:39:06;;;;;;;0.10;0.10;;;18.40;99.90;;;;;;4982157;28;20490;-79
2022/10/27 11:41:41;;;;;;;0.10;0.10;;;18.80;99.90;;;;;;5009487;28;20439;-80
2022/10/27 11:44:14;;;;;;;0.10;0.10;;;19.10;99.90;;;;;;5008911;28;20682;-79
2022/10/27 11:47:00;;;;;;;0.10;0.10;;;18.80;99.90;;;;;;5000986;28;20435;-80
2022/10/27 11:49:33;;;;;;;0.10;0.00;;;18.70;99.90;;;;;;5006442;28;20543;-80
2022/10/27 11:52:13;;;;;;;0.10;0.10;;;19.50;99.90;;;;;;5007488;28;20818;-79
2022/10/27 11:54:39;;;;;;;0.10;0.00;;;20.10;99.90;;;;;;4994904;28;20833;-79
2022/10/27 11:57:13;;;;;;;0.10;0.00;;;20.20;99.90;;;;;;5003023;28;20439;-81
2022/10/27 12:00:00;;;;;;;0.10;0.00;;;20.40;99.90;;;;;;4986387;28;20188;-80
2022/10/27 12:02:46;;;;;;;0.10;0.00;;;20.60;99.90;;;;;;4995108;28;20492;-80
2022/10/27 12:05:26;;;;;;;0.10;0.00;;;20.80;99.90;;;;;;5001032;28;20447;-81
2022/10/27 12:08:22;;;;;;;0.10;0.00;;;20.60;99.90;;;;;;5005560;28;20497;-80
2022/10/27 12:10:50;;;;;;;0.10;0.00;;;20.60;99.90;;;;;;5000756;28;20448;-81
2022/10/27 12:13:26;;;;;;;0.10;0.00;;;20.60;99.90;;;;;;4986028;28;20793;-81
2022/10/27 12:16:13;;;;;;;0.10;0.00;;;20.30;99.90;;;;;;5010820;28;20501;-81
2022/10/27 12:18:51;;;;;;;0.10;0.00;;;20.10;99.90;;;;;;5004707;28;20536;-79
2022/10/27 12:21:44;;;;;;;0.10;0.00;;;19.90;99.90;;;;;;5008323;28;20918;-80
2022/10/27 12:24:18;;;;;;;0.10;0.00;;;19.60;99.90;;;;;;4989535;28;20572;-80
2022/10/27 12:26:54;;;;;;;0.10;0.10;;;19.40;99.90;;;;;;4983726;28;20460;-80
2022/10/27 12:29:23;;;;;;;0.10;0.00;;;19.10;99.90;;;;;;5006428;28;20443;-80
2022/10/27 12:31:56;;;;;;;0.10;0.00;;;18.90;99.90;;;;;;5008590;28;20423;-79
2022/10/27 12:34:28;;;;;;;0.10;0.10;;;18.80;99.90;;;;;;5006288;28;20470;-79
2022/10/27 12:37:07;;;;;;;0.10;0.00;;;18.80;99.90;;;;;;5008492;28;20518;-80
2022/10/27 12:40:02;;;;;;;0.10;0.10;;;18.70;99.90;;;;;;5003506;28;20986;-80
2022/10/27 12:42:36;;;;;;;0.10;0.00;;;18.50;99.90;;;;;;5007582;28;20967;-80
2022/10/27 12:45:25;;;;;;;0.10;0.00;;;18.50;99.90;;;;;;5003595;28;20435;-81
2022/10/27 12:48:28;;;;;;;0.10;0.10;;;18.40;99.90;;;;;;5006639;28;20462;-81
2022/10/27 12:51:10;;;;;;;0.10;0.10;;;18.30;99.90;;;;;;5005282;28;20430;-81
2022/10/27 12:53:46;;;;;;;0.10;0.10;;;18.30;99.90;;;;;;5003038;28;20461;-81
2022/10/27 12:56:39;;;;;;;0.10;0.10;;;18.30;99.90;;;;;;4982871;28;21029;-80
2022/10/27 12:59:22;;;;;;;0.10;0.10;;;18.20;99.90;;;;;;5004914;28;20452;-86
2022/10/27 13:01:58;;;;;;;0.10;0.10;;;18.20;99.90;;;;;;4985428;28;20455;-84
2022/10/27 13:05:12;;;;;;;0.10;0.00;;;18.20;99.90;;;;;;4995549;28;20507;-84